This is the latest recevied weather packets stored in our database for station/object HS1AXC-1. If no packets are shown the sender has not sent any weather packets the latest 10 day(s).
| Time | Temp. | Humidity | Pressure | Rain* | Wind** | Luminosity | Snow |
|---|---|---|---|---|---|---|---|
| 1777943585 | 32.22° C | 70% | 1012 hPa | - | - | 2 W/m² | - |
| 1777942963 | 32.22° C | 69% | 1011 hPa | - | - | 2 W/m² | - |
| 1777942341 | 31.67° C | 74% | 1011 hPa | - | - | 1 W/m² | - |
| 1777941719 | 31.11° C | 79% | 1011 hPa | - | - | 1 W/m² | - |
| 1777941097 | 31.11° C | 79% | 1011 hPa | - | - | 1 W/m² | - |
| 1777940475 | 30° C | 84% | 1011 hPa | - | - | 0 W/m² | - |
| 1777939853 | 30° C | 85% | 1011 hPa | - | - | 0 W/m² | - |
| 1777939230 | 30° C | 86% | 1011 hPa | - | - | 0 W/m² | - |
| 1777938667 | 30° C | 84% | 1011 hPa | - | - | 0 W/m² | - |
| 1777938045 | 30° C | 86% | 1010 hPa | - | - | 0 W/m² | - |
| 1777937423 | 29.44° C | 86% | 1010 hPa | - | - | 0 W/m² | - |
| 1777936801 | 29.44° C | 86% | 1010 hPa | - | - | 0 W/m² | - |
| 1777936179 | 29.44° C | 85% | 1010 hPa | - | - | 0 W/m² | - |
| 1777935557 | 29.44° C | 85% | 1010 hPa | - | - | 0 W/m² | - |
| 1777934935 | 30° C | 86% | 1010 hPa | - | - | 0 W/m² | - |
| 1777934313 | 29.44° C | 86% | 1010 hPa | - | - | 0 W/m² | - |
| 1777933690 | 30° C | 84% | 1010 hPa | - | - | 0 W/m² | - |
| 1777933068 | 29.44° C | 84% | 1009 hPa | - | - | 0 W/m² | - |
| 1777932446 | 30° C | 82% | 1009 hPa | - | - | 0 W/m² | - |
| 1777931824 | 29.44° C | 83% | 1009 hPa | - | - | 0 W/m² | - |
| 1777931202 | 30° C | 84% | 1010 hPa | - | - | 0 W/m² | - |
| 1777930580 | 30° C | 82% | 1010 hPa | - | - | 0 W/m² | - |
| 1777929958 | 30° C | 84% | 1010 hPa | - | - | 0 W/m² | - |
| 1777929336 | 30° C | 86% | 1010 hPa | - | - | 0 W/m² | - |
| 1777928714 | 30° C | 87% | 1010 hPa | - | - | 0 W/m² | - |
* Rain since midnight (hover to see other rain measurements)
** Current wind speed in m/s (hover to see current wind gust speed)